地図

経路データ

SID SEASON NUMBER BASIN SUBBASIN NAME ISO_TIME NATURE LAT LON WMO_WIND WMO_PRES WMO_AGENCY TRACK_TYPE DIST2LAND LANDFALL IFLAG USA_AGENCY USA_ATCF_ID USA_LAT USA_LON USA_RECORD USA_STATUS USA_WIND USA_PRES USA_SSHS USA_R34_NE USA_R34_SE USA_R34_SW USA_R34_NW USA_R50_NE USA_R50_SE USA_R50_SW USA_R50_NW USA_R64_NE USA_R64_SE USA_R64_SW USA_R64_NW USA_POCI USA_ROCI USA_RMW USA_EYE TOKYO_LAT TOKYO_LON TOKYO_GRADE TOKYO_WIND TOKYO_PRES TOKYO_R50_DIR TOKYO_R50_LONG TOKYO_R50_SHORT TOKYO_R30_DIR TOKYO_R30_LONG TOKYO_R30_SHORT TOKYO_LAND CMA_LAT CMA_LON CMA_CAT CMA_WIND CMA_PRES HKO_LAT HKO_LON HKO_CAT HKO_WIND HKO_PRES NEWDELHI_LAT NEWDELHI_LON NEWDELHI_GRADE NEWDELHI_WIND NEWDELHI_PRES NEWDELHI_CI NEWDELHI_DP NEWDELHI_POCI REUNION_LAT REUNION_LON REUNION_TYPE REUNION_WIND REUNION_PRES REUNION_TNUM REUNION_CI REUNION_RMW REUNION_R34_NE REUNION_R34_SE REUNION_R34_SW REUNION_R34_NW REUNION_R50_NE REUNION_R50_SE REUNION_R50_SW REUNION_R50_NW REUNION_R64_NE REUNION_R64_SE REUNION_R64_SW REUNION_R64_NW BOM_LAT BOM_LON BOM_TYPE BOM_WIND BOM_PRES BOM_TNUM BOM_CI BOM_RMW BOM_R34_NE BOM_R34_SE BOM_R34_SW BOM_R34_NW BOM_R50_NE BOM_R50_SE BOM_R50_SW BOM_R50_NW BOM_R64_NE BOM_R64_SE BOM_R64_SW BOM_R64_NW BOM_ROCI BOM_POCI BOM_EYE BOM_POS_METHOD BOM_PRES_METHOD NADI_LAT NADI_LON NADI_CAT NADI_WIND NADI_PRES WELLINGTON_LAT WELLINGTON_LON WELLINGTON_WIND WELLINGTON_PRES DS824_LAT DS824_LON DS824_STAGE DS824_WIND DS824_PRES TD9636_LAT TD9636_LON TD9636_STAGE TD9636_WIND TD9636_PRES TD9635_LAT TD9635_LON TD9635_WIND TD9635_PRES TD9635_ROCI NEUMANN_LAT NEUMANN_LON NEUMANN_CLASS NEUMANN_WIND NEUMANN_PRES MLC_LAT MLC_LON MLC_CLASS MLC_WIND MLC_PRES USA_GUST BOM_GUST BOM_GUST_PER REUNION_GUST REUNION_GUST_PER USA_SEAHGT USA_SEARAD_NE USA_SEARAD_SE USA_SEARAD_SW USA_SEARAD_NW STORM_SPEED STORM_DIR
1998106S09135 1998 24 SP EA NOT_NAMED 1998-04-16 00:00:00 TS -8.60000 135.400 main 229 209 O___________O_ jtwc_sh SH351998 -8.60000 135.400 20 -1 -8.60000 135.400 TC 20 9 276
1998106S09135 1998 24 SI WA NOT_NAMED 1998-04-16 03:00:00 TS -8.55260 134.950 main 209 182 P___________P_ SH351998 -8.55260 134.950 22 -1 -8.55260 134.950 TC 22 9 276
1998106S09135 1998 24 SI WA NOT_NAMED 1998-04-16 06:00:00 TS -8.50000 134.500 main 182 168 O___________O_ jtwc_sh SH351998 -8.50000 134.500 25 -1 -8.50000 134.500 TC 25 9 277
1998106S09135 1998 24 SI WA NOT_NAMED 1998-04-16 09:00:00 TS -8.44245 134.050 main 168 169 P___________P_ SH351998 -8.44245 134.050 25 -1 -8.44245 134.050 TC 25 9 276
1998106S09135 1998 24 SI WA NOT_NAMED 1998-04-16 12:00:00 TS -8.40000 133.600 main 180 180 O___________O_ jtwc_sh SH351998 -8.40000 133.600 25 -1 -8.40000 133.600 TC 25 9 274
1998106S09135 1998 24 SI WA NOT_NAMED 1998-04-16 15:00:00 TS -8.38495 133.150 main 197 150 P___________P_ SH351998 -8.38495 133.150 25 -1 -8.38495 133.150 TC 25 9 270
1998106S09135 1998 24 SI WA NOT_NAMED 1998-04-16 18:00:00 TS -8.40000 132.700 main 150 113 O___________O_ jtwc_sh SH351998 -8.40000 132.700 25 -1 -8.40000 132.700 TC 25 9 268
1998106S09135 1998 24 SI WA NOT_NAMED 1998-04-16 21:00:00 TS -8.41997 132.242 main 104 78 P___________P_ SH351998 -8.41997 132.242 25 -1 -8.41997 132.242 TC 25 9 264
1998106S09135 1998 24 SI WA NOT_NAMED 1998-04-17 00:00:00 TS -8.50000 131.800 main 78 70 O___________O_ jtwc_sh SH351998 -8.50000 131.800 25 -1 -8.50000 131.800 TC 25 9 254
1998106S09135 1998 24 SI WA NOT_NAMED 1998-04-17 03:00:00 TS -8.66239 131.407 main 79 78 P___________P_ SH351998 -8.66239 131.407 25 -1 -8.66239 131.407 TC 25 9 243
1998106S09135 1998 24 SI WA NOT_NAMED 1998-04-17 06:00:00 TS -8.90000 131.000 main 101 101 O___________O_ jtwc_sh SH351998 -8.90000 131.000 25 -1 -8.90000 131.000 TC 25 10 239
1998106S09135 1998 24 SI WA NOT_NAMED 1998-04-17 09:00:00 TS -9.18496 130.522 main 149 149 P___________P_ SH351998 -9.18496 130.522 25 -1 -9.18496 130.522 TC 25 12 239
1998106S09135 1998 24 SI WA NOT_NAMED 1998-04-17 12:00:00 TS -9.50000 130.000 main 207 190 O___________O_ jtwc_sh SH351998 -9.50000 130.000 25 -1 -9.50000 130.000 TC 25 12 239
1998106S09135 1998 24 SI WA NOT_NAMED 1998-04-17 15:00:00 TS -9.80741 129.465 main 194 189 P___________P_ SH351998 -9.80741 129.465 27 -1 -9.80741 129.465 TC 27 12 241
1998106S09135 1998 24 SI WA NOT_NAMED 1998-04-17 18:00:00 TS -10.1000 128.900 main 203 203 O___________O_ jtwc_sh SH351998 -10.1000 128.900 30 -1 -10.1000 128.900 TC 30 13 245
1998106S09135 1998 24 SI WA NOT_NAMED 1998-04-17 21:00:00 TS -10.3500 128.292 main 232 219 P___________P_ SH351998 -10.3500 128.292 30 -1 -10.3500 128.292 TC 30 13 247
1998106S09135 1998 24 SI WA NOT_NAMED 1998-04-18 00:00:00 TS -10.6000 127.700 main 222 214 O___________O_ jtwc_sh SH351998 -10.6000 127.700 30 -1 -10.6000 127.700 TC 30 12 245
1998106S09135 1998 24 SI WA NOT_NAMED 1998-04-18 03:00:00 TS -10.8700 127.155 main 226 219 P___________P_ SH351998 -10.8700 127.155 30 -1 -10.8700 127.155 TC 30 12 239
1998106S09135 1998 24 SI WA NOT_NAMED 1998-04-18 06:00:00 TS -11.2000 126.700 main 247 247 O___________O_ jtwc_sh SH351998 -11.2000 126.700 30 -1 -11.2000 126.700 TC 30 11 227
1998106S09135 1998 24 SI WA NOT_NAMED 1998-04-18 09:00:00 TS -11.6349 126.333 main 254 209 P___________P_ SH351998 -11.6349 126.333 32 -1 -11.6349 126.333 TC 32 11 213
1998106S09135 1998 24 SI WA NOT_NAMED 1998-04-18 12:00:00 TS -12.1000 126.100 main 209 168 O___________O_ jtwc_sh SH351998 -12.1000 126.100 35 0 -12.1000 126.100 TC 35 9 200
1998106S09135 1998 24 SI WA NOT_NAMED 1998-04-18 15:00:00 TS -12.5074 126.012 main 168 123 P___________P_ SH351998 -12.5074 126.012 37 0 -12.5074 126.012 TC 37 8 187
1998106S09135 1998 24 SI WA NOT_NAMED 1998-04-18 18:00:00 TS -12.9000 126.000 main 123 81 O___________O_ jtwc_sh SH351998 -12.9000 126.000 40 0 -12.9000 126.000 TC 40 8 185
1998106S09135 1998 24 SI WA NOT_NAMED 1998-04-18 21:00:00 TS -13.3000 125.943 main 81 39 P___________P_ SH351998 -13.3000 125.943 40 0 -13.3000 125.943 TC 40 8 187
1998106S09135 1998 24 SI WA NOT_NAMED 1998-04-19 00:00:00 TS -13.7000 125.900 main 39 10 O___________O_ jtwc_sh SH351998 -13.7000 125.900 40 0 -13.7000 125.900 TC 40 8 184
1998106S09135 1998 24 SI WA NOT_NAMED 1998-04-19 03:00:00 TS -14.1000 125.892 main 10 10 P___________P_ SH351998 -14.1000 125.892 40 0 -14.1000 125.892 TC 40 8 179
1998106S09135 1998 24 SI WA NOT_NAMED 1998-04-19 06:00:00 TS -14.5000 125.900 main 10 0 O___________O_ jtwc_sh SH351998 -14.5000 125.900 40 0 -14.5000 125.900 TC 40 8 179
1998106S09135 1998 24 SI WA NOT_NAMED 1998-04-19 09:00:00 TS -14.9000 125.903 main 0 0 P___________P_ SH351998 -14.9000 125.903 37 0 -14.9000 125.903 TC 37 8 179
1998106S09135 1998 24 SI WA NOT_NAMED 1998-04-19 12:00:00 TS -15.3000 125.900 main 0 O___________O_ jtwc_sh SH351998 -15.3000 125.900 35 0 -15.3000 125.900 TC 35 8 0

デジタル台風データ・検索

IBTrACS Databaseについて

本データベースは、米国NOAAが公開する1842年以降の世界の熱帯低気圧のベストトラックデータアーカイブInternational Best Track Archive for Climate Stewardship (IBTrACS)を、ウェブで閲覧しやすい形式に変換したものです。

最終更新日:2021-12-06